createdAt,value
2019-02-16T00:01:01.626Z,8.67
2019-02-16T00:05:09.863Z,7.40
2019-02-16T00:09:18.119Z,7.50
2019-02-16T00:13:26.445Z,8.00
2019-02-16T00:17:34.649Z,7.60
2019-02-16T00:21:42.879Z,7.90
2019-02-16T00:25:51.138Z,8.37
2019-02-16T00:29:59.334Z,7.50
2019-02-16T00:34:07.582Z,8.30
2019-02-16T00:38:15.832Z,6.60
2019-02-16T00:42:24.056Z,7.77
2019-02-16T00:46:32.266Z,7.87
2019-02-16T00:50:40.518Z,7.40
2019-02-16T00:54:48.746Z,7.70
2019-02-16T00:58:57.042Z,7.53
2019-02-16T01:03:05.318Z,6.83
2019-02-16T01:07:13.555Z,7.50
2019-02-16T01:11:21.755Z,8.73
2019-02-16T01:15:29.992Z,7.57
2019-02-16T01:19:38.217Z,8.30
2019-02-16T01:23:46.442Z,7.57
2019-02-16T01:27:54.690Z,8.97
2019-02-16T01:32:02.933Z,8.50
2019-02-16T01:36:11.179Z,7.83
2019-02-16T01:40:19.436Z,7.97
2019-02-16T01:44:27.669Z,8.50
2019-02-16T01:48:35.959Z,8.75
2019-02-16T01:52:44.166Z,8.00
2019-02-16T01:56:52.421Z,8.13
2019-02-16T02:01:00.646Z,8.93
2019-02-16T02:05:08.934Z,8.07
2019-02-16T02:09:17.207Z,10.03
2019-02-16T02:13:25.474Z,8.33
2019-02-16T02:17:33.678Z,9.70
2019-02-16T02:21:41.914Z,8.40
2019-02-16T02:25:50.167Z,7.87
2019-02-16T02:29:58.426Z,9.33
2019-02-16T02:34:06.657Z,8.30
2019-02-16T02:38:14.907Z,7.77
2019-02-16T02:42:23.163Z,8.00
2019-02-16T02:46:31.409Z,9.10
2019-02-16T02:50:39.627Z,7.93
2019-02-16T02:54:48.063Z,8.33
2019-02-16T02:58:56.111Z,8.67
2019-02-16T03:03:04.361Z,9.07
2019-02-16T03:07:12.582Z,8.53
2019-02-16T03:11:20.541Z,8.30
2019-02-16T03:15:28.762Z,8.87
2019-02-16T03:19:37.050Z,9.33
2019-02-16T03:23:45.321Z,8.83
2019-02-16T03:28:23.376Z,8.60
2019-02-16T03:34:41.721Z,8.23
2019-02-16T03:38:57.213Z,9.20
2019-02-16T03:43:05.478Z,9.23
2019-02-16T03:47:13.690Z,8.67
2019-02-16T03:51:21.903Z,9.10
2019-02-16T03:55:30.155Z,9.77
2019-02-16T03:59:38.403Z,9.87
2019-02-16T04:03:46.617Z,8.73
2019-02-16T04:07:54.834Z,8.70
2019-02-16T04:12:03.118Z,9.63
2019-02-16T04:16:11.369Z,9.00
2019-02-16T04:20:19.577Z,9.07
2019-02-16T04:24:27.825Z,9.33
2019-02-16T04:28:36.071Z,8.17
2019-02-16T04:32:44.271Z,8.37
2019-02-16T04:36:52.507Z,8.53
2019-02-16T04:41:00.758Z,8.73
2019-02-16T04:45:09.027Z,8.77
2019-02-16T04:49:17.250Z,8.10
2019-02-16T04:53:25.514Z,7.40
2019-02-16T04:57:33.790Z,8.10
2019-02-16T05:01:41.990Z,8.70
2019-02-16T05:05:50.221Z,9.23
2019-02-16T05:09:58.428Z,9.30
2019-02-16T05:14:06.659Z,8.87
2019-02-16T05:18:14.872Z,9.57
2019-02-16T05:22:23.135Z,8.73
2019-02-16T05:26:31.343Z,9.03
2019-02-16T05:30:39.577Z,9.10
2019-02-16T05:34:48.134Z,8.90
2019-02-16T05:38:56.127Z,8.53
2019-02-16T05:43:05.005Z,8.33
2019-02-16T05:47:13.270Z,8.80
2019-02-16T05:51:21.520Z,9.87
2019-02-16T05:55:29.770Z,8.60
2019-02-16T05:59:37.995Z,9.15
2019-02-16T06:03:46.214Z,9.07
2019-02-16T06:07:54.447Z,8.80
2019-02-16T06:12:02.638Z,9.77
2019-02-16T06:16:10.866Z,10.03
2019-02-16T06:20:19.103Z,9.43
2019-02-16T06:24:27.340Z,10.60
2019-02-16T06:28:35.728Z,10.13
2019-02-16T06:32:43.836Z,8.80
2019-02-16T06:36:52.052Z,10.67
2019-02-16T06:41:00.298Z,8.73
2019-02-16T06:45:08.551Z,10.00
2019-02-16T06:49:16.780Z,9.37
2019-02-16T06:53:24.804Z,9.00
2019-02-16T06:57:33.040Z,9.80
2019-02-16T07:01:41.269Z,9.90
2019-02-16T07:05:49.467Z,8.80
2019-02-16T07:09:57.703Z,9.60
2019-02-16T07:14:05.974Z,10.20
2019-02-16T07:18:22.611Z,9.50
2019-02-16T07:22:30.575Z,9.37
2019-02-16T07:26:38.810Z,9.83
2019-02-16T07:30:47.005Z,10.20
2019-02-16T07:34:55.260Z,11.23
2019-02-16T07:39:03.782Z,10.50
2019-02-16T07:43:16.350Z,11.43
2019-02-16T07:47:32.729Z,9.57
2019-02-16T07:51:45.201Z,10.90
2019-02-16T07:55:58.536Z,11.87
2019-02-16T08:00:13.579Z,10.40
2019-02-16T08:04:27.267Z,11.43
2019-02-16T08:08:39.756Z,11.93
2019-02-16T08:12:58.106Z,11.17
2019-02-16T08:17:13.950Z,12.33
2019-02-16T08:21:27.334Z,12.07
2019-02-16T08:25:43.772Z,12.00
2019-02-16T08:29:58.284Z,11.67
2019-02-16T08:34:13.519Z,13.17
2019-02-16T08:38:26.012Z,13.40
2019-02-16T08:42:42.303Z,11.13
2019-02-16T08:46:58.829Z,12.13
2019-02-16T08:51:45.377Z,10.17
2019-02-16T08:55:58.843Z,11.40
2019-02-16T09:00:11.386Z,12.23
2019-02-16T09:04:26.587Z,12.10
2019-02-16T09:10:44.383Z,13.00
2019-02-16T09:15:00.749Z,12.20
2019-02-16T09:19:14.349Z,12.53
2019-02-16T09:23:28.042Z,14.53
2019-02-16T09:27:46.323Z,12.17
2019-02-16T09:32:01.861Z,12.23
2019-02-16T09:37:14.050Z,10.27
2019-02-16T09:41:27.772Z,10.30
2019-02-16T09:45:40.289Z,11.10
2019-02-16T09:50:08.950Z,11.20
2019-02-16T09:54:26.499Z,10.73
2019-02-16T09:59:44.672Z,10.43
2019-02-16T10:04:34.575Z,9.90
2019-02-16T10:08:47.046Z,10.20
2019-02-16T10:13:00.690Z,10.03
2019-02-16T10:17:13.027Z,9.77
2019-02-16T10:21:31.523Z,10.73
2019-02-16T10:25:49.026Z,10.17
2019-02-16T10:31:00.786Z,11.00
2019-02-16T10:35:14.692Z,11.60
2019-02-16T10:39:27.200Z,11.47
2019-02-16T10:44:39.616Z,13.07
2019-02-16T10:48:52.936Z,14.87
2019-02-16T10:53:09.319Z,11.40
2019-02-16T10:57:28.852Z,13.80
2019-02-16T11:01:42.199Z,11.90
2019-02-16T11:05:55.519Z,12.47
2019-02-16T11:10:08.202Z,12.27
2019-02-16T11:14:25.579Z,13.47
2019-02-16T11:18:39.301Z,14.30
2019-02-16T11:22:54.743Z,13.70
2019-02-16T11:27:08.614Z,12.63
2019-02-16T11:31:27.030Z,13.53
2019-02-16T11:35:46.522Z,14.17
2019-02-16T11:41:18.298Z,14.10
2019-02-16T11:45:37.450Z,15.17
2019-02-16T11:49:51.075Z,13.23
2019-02-16T11:54:04.351Z,13.23
2019-02-16T11:58:18.566Z,14.27
2019-02-16T12:02:39.786Z,14.43
2019-02-16T12:06:48.449Z,13.80
2019-02-16T12:11:03.819Z,13.20
2019-02-16T12:15:22.257Z,13.50
2019-02-16T12:19:38.643Z,13.57
2019-02-16T12:24:23.287Z,12.57
2019-02-16T12:28:39.987Z,12.40
2019-02-16T12:33:10.632Z,14.73
2019-02-16T12:37:30.218Z,14.90
2019-02-16T12:41:43.863Z,13.43
2019-02-16T12:46:03.431Z,14.57
2019-02-16T12:50:33.763Z,13.00
2019-02-16T12:54:47.127Z,12.40
2019-02-16T12:59:00.778Z,13.87
2019-02-16T13:03:18.153Z,13.03
2019-02-16T13:09:34.202Z,13.63
2019-02-16T13:13:47.716Z,13.53
2019-02-16T13:18:00.212Z,13.90
2019-02-16T13:22:12.734Z,13.33
2019-02-16T13:26:31.123Z,15.07
2019-02-16T13:30:46.542Z,14.40
2019-02-16T13:34:59.112Z,13.07
2019-02-16T13:39:16.506Z,15.20
2019-02-16T13:43:29.070Z,14.90
2019-02-16T13:48:40.295Z,15.13
2019-02-16T13:52:54.783Z,15.27
2019-02-16T13:57:07.242Z,15.37
2019-02-16T14:01:20.512Z,15.07
2019-02-16T14:05:38.902Z,15.40
2019-02-16T14:09:56.461Z,14.27
2019-02-16T14:14:14.952Z,13.80
2019-02-16T14:18:23.194Z,13.97
2019-02-16T14:22:31.419Z,14.03
2019-02-16T14:26:39.686Z,15.73
2019-02-16T14:30:47.938Z,14.17
2019-02-16T14:34:56.205Z,16.07
2019-02-16T14:39:12.789Z,15.60
2019-02-16T14:43:21.063Z,16.17
2019-02-16T14:47:29.339Z,15.33
2019-02-16T14:51:37.701Z,15.97
2019-02-16T14:55:52.390Z,14.30
2019-02-16T14:59:54.154Z,16.47
2019-02-16T15:04:02.370Z,14.37
2019-02-16T15:08:10.583Z,14.93
2019-02-16T15:12:18.894Z,15.73
2019-02-16T15:16:27.166Z,14.80
2019-02-16T15:20:35.382Z,15.70
2019-02-16T15:24:43.646Z,16.10
2019-02-16T15:28:51.902Z,16.60
2019-02-16T15:33:00.158Z,13.80
2019-02-16T15:37:08.597Z,16.03
2019-02-16T15:41:16.906Z,15.90
2019-02-16T15:45:25.153Z,13.90
2019-02-16T15:49:33.412Z,16.17
2019-02-16T15:53:41.735Z,13.47
2019-02-16T15:57:49.954Z,16.40
2019-02-16T16:01:58.157Z,16.03
2019-02-16T16:06:06.418Z,17.70
2019-02-16T16:10:17.822Z,16.17
2019-02-16T16:14:30.282Z,15.67
2019-02-16T16:18:42.731Z,16.03
2019-02-16T16:23:00.114Z,17.03
2019-02-16T16:27:17.659Z,15.10
2019-02-16T16:31:36.185Z,14.67
2019-02-16T16:36:03.615Z,15.32
2019-02-16T16:40:17.243Z,17.13
2019-02-16T16:44:34.006Z,16.73
2019-02-16T16:48:46.474Z,15.77
2019-02-16T16:53:12.114Z,16.07
2019-02-16T16:57:24.584Z,15.87
2019-02-16T17:01:41.155Z,16.43
2019-02-16T17:05:54.563Z,16.97
2019-02-16T17:12:16.462Z,16.50
2019-02-16T17:16:31.750Z,16.73
2019-02-16T17:20:46.256Z,17.30
2019-02-16T17:25:01.581Z,17.50
2019-02-16T17:29:14.078Z,20.47
2019-02-16T17:33:29.510Z,19.87
2019-02-16T17:37:42.994Z,20.43
2019-02-16T17:41:56.496Z,21.97
2019-02-16T17:46:10.171Z,19.90
2019-02-16T17:50:23.954Z,18.60
2019-02-16T17:54:41.193Z,19.67
2019-02-16T17:58:56.470Z,20.97
2019-02-16T18:03:40.194Z,20.90
2019-02-16T18:07:54.699Z,20.50
2019-02-16T18:12:08.262Z,19.70
2019-02-16T18:16:21.607Z,18.13
2019-02-16T18:20:34.080Z,17.43
2019-02-16T18:24:50.565Z,18.47
2019-02-16T18:29:05.923Z,16.93
2019-02-16T18:33:26.510Z,20.13
2019-02-16T18:37:40.257Z,20.77
2019-02-16T18:42:00.581Z,18.90
2019-02-16T18:46:19.113Z,20.93
2019-02-16T18:50:37.650Z,22.40
2019-02-16T18:55:53.646Z,23.20
2019-02-16T19:00:08.139Z,23.23
2019-02-16T19:04:22.601Z,21.40
2019-02-16T19:08:36.384Z,26.13
2019-02-16T19:14:53.096Z,26.53
2019-02-16T19:19:09.519Z,25.83
2019-02-16T19:23:22.902Z,25.80
2019-02-16T19:29:43.657Z,26.80
2019-02-16T19:33:57.097Z,29.17
2019-02-16T19:38:11.490Z,35.20
2019-02-16T19:42:27.868Z,35.37
2019-02-16T19:46:44.126Z,36.20
2019-02-16T19:50:57.926Z,37.40
2019-02-16T19:55:17.316Z,39.53
2019-02-16T19:59:29.792Z,37.90
2019-02-16T20:03:44.300Z,37.80
2019-02-16T20:08:01.707Z,38.30
2019-02-16T20:12:15.129Z,38.23
2019-02-16T20:16:29.542Z,38.00
2019-02-16T20:21:00.233Z,35.07
2019-02-16T20:25:15.633Z,38.27
2019-02-16T20:29:32.149Z,36.77
2019-02-16T20:33:47.744Z,35.07
2019-02-16T20:38:20.369Z,32.40
2019-02-16T20:42:41.813Z,32.83
2019-02-16T20:46:55.305Z,34.30
2019-02-16T20:51:15.801Z,29.90
2019-02-16T20:55:30.301Z,29.53
2019-02-16T20:59:43.766Z,28.17
2019-02-16T21:04:08.447Z,30.03
2019-02-16T21:08:40.024Z,27.40
2019-02-16T21:12:54.490Z,24.70
2019-02-16T21:17:08.291Z,22.53
2019-02-16T21:21:20.779Z,22.57
2019-02-16T21:25:35.275Z,21.33
2019-02-16T21:29:47.951Z,21.67
2019-02-16T21:34:07.124Z,21.27
2019-02-16T21:38:22.490Z,21.57
2019-02-16T21:42:35.852Z,23.00
2019-02-16T21:48:51.729Z,22.73
2019-02-16T21:53:07.174Z,23.73
2019-02-16T21:57:25.651Z,21.57
2019-02-16T22:01:41.125Z,23.07
2019-02-16T22:05:55.633Z,24.73
2019-02-16T22:10:10.993Z,24.10
2019-02-16T22:14:19.237Z,22.37
2019-02-16T22:18:27.474Z,22.30
2019-02-16T22:22:35.690Z,23.80
2019-02-16T22:26:43.954Z,21.87
2019-02-16T22:30:52.190Z,22.87
2019-02-16T22:35:00.430Z,23.07
2019-02-16T22:39:08.610Z,22.10
2019-02-16T22:43:16.872Z,23.80
2019-02-16T22:47:25.094Z,22.93
2019-02-16T22:51:33.393Z,22.17
2019-02-16T22:55:41.635Z,21.60
2019-02-16T22:59:49.873Z,22.93
2019-02-16T23:03:58.122Z,21.37
2019-02-16T23:08:06.409Z,21.43
2019-02-16T23:12:14.662Z,22.20
2019-02-16T23:16:22.893Z,24.23
2019-02-16T23:20:31.119Z,24.67
2019-02-16T23:24:39.352Z,22.20
2019-02-16T23:28:47.606Z,24.57
2019-02-16T23:32:57.069Z,24.87
2019-02-16T23:37:04.138Z,23.17
2019-02-16T23:41:12.407Z,26.43
2019-02-16T23:45:20.607Z,24.33
2019-02-16T23:49:28.846Z,22.57
2019-02-16T23:53:37.070Z,24.37
2019-02-16T23:57:45.354Z,24.90
